createdAt,value
2023-02-24T00:03:45.126Z,19.67
2023-02-24T00:09:12.647Z,19.62
2023-02-24T00:14:36.230Z,19.62
2023-02-24T00:19:57.997Z,19.59
2023-02-24T00:25:19.692Z,19.56
2023-02-24T00:30:41.611Z,19.53
2023-02-24T00:36:08.233Z,19.51
2023-02-24T00:41:32.815Z,19.50
2023-02-24T00:46:54.556Z,19.46
2023-02-24T00:52:20.824Z,19.44
2023-02-24T00:57:42.567Z,19.41
2023-02-24T01:03:04.554Z,19.37
2023-02-24T01:08:26.548Z,19.36
2023-02-24T01:13:49.089Z,19.34
2023-02-24T01:19:12.165Z,19.31
2023-02-24T01:24:37.111Z,19.29
2023-02-24T01:30:01.374Z,19.25
2023-02-24T01:35:23.062Z,19.24
2023-02-24T01:40:44.773Z,19.21
2023-02-24T01:46:06.521Z,19.20
2023-02-24T01:51:31.920Z,19.18
2023-02-24T01:56:56.271Z,19.17
2023-02-24T02:02:19.486Z,19.15
2023-02-24T02:07:42.110Z,19.12
2023-02-24T02:13:04.777Z,19.11
2023-02-24T02:18:36.500Z,19.09
2023-02-24T02:24:15.227Z,19.07
2023-02-24T02:29:51.876Z,19.05
2023-02-24T02:35:19.290Z,19.01
2023-02-24T02:40:49.380Z,19.00
2023-02-24T02:46:37.923Z,18.99
2023-02-24T02:52:14.293Z,18.99
2023-02-24T02:57:40.347Z,18.96
2023-02-24T03:03:09.724Z,18.94
2023-02-24T03:08:34.668Z,18.90
2023-02-24T03:13:58.530Z,18.88
2023-02-24T03:19:31.127Z,18.87
2023-02-24T03:24:53.072Z,18.86
2023-02-24T03:30:24.009Z,18.85
2023-02-24T03:35:45.912Z,18.81
2023-02-24T03:41:13.634Z,18.81
2023-02-24T03:46:35.776Z,18.80
2023-02-24T03:52:14.842Z,18.79
2023-02-24T03:58:01.076Z,18.75
2023-02-24T04:03:38.129Z,18.76
2023-02-24T04:09:36.344Z,18.73
2023-02-24T04:15:08.472Z,18.70
2023-02-24T04:20:33.253Z,18.70
2023-02-24T04:25:58.108Z,18.68
2023-02-24T04:31:23.212Z,18.67
2023-02-24T04:36:49.721Z,18.67
2023-02-24T04:42:11.517Z,18.66
2023-02-24T04:47:33.233Z,18.64
2023-02-24T04:52:58.055Z,18.64
2023-02-24T04:58:21.863Z,18.63
2023-02-24T05:03:43.843Z,18.61
2023-02-24T05:09:14.425Z,18.61
2023-02-24T05:14:36.253Z,18.60
2023-02-24T05:20:16.527Z,18.58
2023-02-24T05:25:38.519Z,18.57
2023-02-24T05:31:08.635Z,18.56
2023-02-24T05:36:40.663Z,18.56
2023-02-24T05:42:07.244Z,18.54
2023-02-24T05:47:29.012Z,18.53
2023-02-24T05:52:50.721Z,18.53
2023-02-24T05:58:12.617Z,18.51
2023-02-24T06:03:35.777Z,18.50
2023-02-24T06:08:58.580Z,18.71
2023-02-24T06:14:22.419Z,19.18
2023-02-24T06:19:45.300Z,19.78
2023-02-24T06:25:07.725Z,20.33
2023-02-24T06:30:29.506Z,20.62
2023-02-24T06:35:51.622Z,20.72
2023-02-24T06:41:13.545Z,20.70
2023-02-24T06:46:35.629Z,20.59
2023-02-24T06:51:57.826Z,20.48
2023-02-24T06:57:20.845Z,20.33
2023-02-24T07:02:42.624Z,20.16
2023-02-24T07:08:04.351Z,20.02
2023-02-24T07:13:30.879Z,19.87
2023-02-24T07:18:57.081Z,19.73
2023-02-24T07:24:33.333Z,19.60
2023-02-24T07:29:55.317Z,19.50
2023-02-24T07:35:17.097Z,19.40
2023-02-24T07:40:41.113Z,19.29
2023-02-24T07:46:08.148Z,19.36
2023-02-24T07:51:31.147Z,19.71
2023-02-24T07:56:59.576Z,20.18
2023-02-24T08:02:24.074Z,20.66
2023-02-24T08:07:49.977Z,21.04
2023-02-24T08:13:12.129Z,21.33
2023-02-24T08:18:37.572Z,21.50
2023-02-24T08:24:02.599Z,21.54
2023-02-24T08:29:24.326Z,21.54
2023-02-24T08:34:49.673Z,21.45
2023-02-24T08:40:32.773Z,21.39
2023-02-24T08:46:06.645Z,21.19
2023-02-24T08:51:35.288Z,21.01
2023-02-24T08:56:57.184Z,20.81
2023-02-24T09:02:27.433Z,20.73
2023-02-24T09:07:54.874Z,20.61
2023-02-24T09:13:16.673Z,20.52
2023-02-24T09:18:38.608Z,20.47
2023-02-24T09:24:03.660Z,20.43
2023-02-24T09:29:35.295Z,20.37
2023-02-24T09:34:57.047Z,20.23
2023-02-24T09:40:19.173Z,20.19
2023-02-24T09:45:41.504Z,20.13
2023-02-24T09:51:05.825Z,20.07
2023-02-24T09:56:37.420Z,20.01
2023-02-24T10:02:31.368Z,19.95
2023-02-24T10:07:57.345Z,19.87
2023-02-24T10:13:30.763Z,19.81
2023-02-24T10:19:24.474Z,19.76
2023-02-24T10:24:49.602Z,19.72
2023-02-24T10:30:20.159Z,19.88
2023-02-24T10:35:43.696Z,20.12
2023-02-24T10:41:06.389Z,20.43
2023-02-24T10:46:42.161Z,20.79
2023-02-24T10:52:09.279Z,21.15
2023-02-24T10:57:42.592Z,21.46
2023-02-24T11:03:22.185Z,21.70
2023-02-24T11:09:18.177Z,21.81
2023-02-24T11:15:16.305Z,21.79
2023-02-24T11:20:52.184Z,21.71
2023-02-24T11:26:19.169Z,21.63
2023-02-24T11:31:56.180Z,21.48
2023-02-24T11:37:27.198Z,21.31
2023-02-24T11:42:57.791Z,21.14
2023-02-24T11:48:36.294Z,20.97
2023-02-24T11:54:10.232Z,20.83
2023-02-24T11:59:39.946Z,20.70
2023-02-24T12:05:17.037Z,20.58
2023-02-24T12:10:47.732Z,20.44
2023-02-24T12:16:21.132Z,20.34
2023-02-24T12:21:51.132Z,20.20
2023-02-24T12:27:39.523Z,20.11
2023-02-24T12:33:08.177Z,20.03
2023-02-24T12:38:51.048Z,20.01
2023-02-24T12:44:24.697Z,19.96
2023-02-24T12:50:18.830Z,19.95
2023-02-24T12:56:13.534Z,19.94
2023-02-24T13:01:47.928Z,19.96
2023-02-24T13:07:36.703Z,19.90
2023-02-24T13:13:17.420Z,19.93
2023-02-24T13:18:41.974Z,19.83
2023-02-24T13:24:03.951Z,19.83
2023-02-24T13:29:25.707Z,19.84
2023-02-24T13:34:47.657Z,20.08
2023-02-24T13:40:17.914Z,20.33
2023-02-24T13:45:42.716Z,20.52
2023-02-24T13:51:32.641Z,20.71
2023-02-24T13:57:08.746Z,20.87
2023-02-24T14:02:31.379Z,21.06
2023-02-24T14:07:55.497Z,21.21
2023-02-24T14:13:22.568Z,21.29
2023-02-24T14:18:58.907Z,21.31
2023-02-24T14:24:21.054Z,21.29
2023-02-24T14:29:44.405Z,21.19
2023-02-24T14:35:06.921Z,21.11
2023-02-24T14:40:29.474Z,21.03
2023-02-24T14:45:53.004Z,20.93
2023-02-24T14:51:25.730Z,20.83
2023-02-24T14:56:48.100Z,20.70
2023-02-24T15:02:22.033Z,20.63
2023-02-24T15:07:45.952Z,20.53
2023-02-24T15:13:34.074Z,20.47
2023-02-24T15:19:01.029Z,20.39
2023-02-24T15:24:29.647Z,20.37
2023-02-24T15:30:03.407Z,20.32
2023-02-24T15:35:25.453Z,20.23
2023-02-24T15:41:00.509Z,20.22
2023-02-24T15:46:29.349Z,20.17
2023-02-24T15:51:54.935Z,20.16
2023-02-24T15:57:18.189Z,20.17
2023-02-24T16:02:41.432Z,20.18
2023-02-24T16:08:03.584Z,20.21
2023-02-24T16:13:27.044Z,20.22
2023-02-24T16:18:48.860Z,20.24
2023-02-24T16:24:10.702Z,20.23
2023-02-24T16:29:32.557Z,20.21
2023-02-24T16:34:54.370Z,20.20
2023-02-24T16:40:31.083Z,20.32
2023-02-24T16:45:55.588Z,20.43
2023-02-24T16:51:17.464Z,20.52
2023-02-24T16:56:39.164Z,20.59
2023-02-24T17:02:02.346Z,20.61
2023-02-24T17:07:24.299Z,20.62
2023-02-24T17:12:46.379Z,20.61
2023-02-24T17:18:08.899Z,20.58
2023-02-24T17:23:30.616Z,20.53
2023-02-24T17:28:52.305Z,20.48
2023-02-24T17:34:14.027Z,20.43
2023-02-24T17:39:35.776Z,20.39
2023-02-24T17:44:57.594Z,20.30
2023-02-24T17:50:19.642Z,20.18
2023-02-24T17:55:55.866Z,20.13
2023-02-24T18:01:21.785Z,20.02
2023-02-24T18:06:44.163Z,20.08
2023-02-24T18:12:06.212Z,20.22
2023-02-24T18:17:28.207Z,20.50
2023-02-24T18:22:50.406Z,20.87
2023-02-24T18:28:12.546Z,21.21
2023-02-24T18:33:34.507Z,21.39
2023-02-24T18:39:00.018Z,21.45
2023-02-24T18:44:21.728Z,21.38
2023-02-24T18:49:43.490Z,21.32
2023-02-24T18:55:05.672Z,21.18
2023-02-24T19:00:27.578Z,21.02
2023-02-24T19:05:50.027Z,20.86
2023-02-24T19:11:15.279Z,20.78
2023-02-24T19:16:37.766Z,20.74
2023-02-24T19:22:00.509Z,20.74
2023-02-24T19:27:22.456Z,20.81
2023-02-24T19:32:44.224Z,21.10
2023-02-24T19:38:06.017Z,21.44
2023-02-24T19:43:28.104Z,21.79
2023-02-24T19:48:49.909Z,22.08
2023-02-24T19:54:12.474Z,22.31
2023-02-24T19:59:34.843Z,22.50
2023-02-24T20:04:56.708Z,22.56
2023-02-24T20:10:18.622Z,22.50
2023-02-24T20:15:40.449Z,22.42
2023-02-24T20:21:02.542Z,22.30
2023-02-24T20:26:26.475Z,22.13
2023-02-24T20:31:49.233Z,21.96
2023-02-24T20:37:11.001Z,21.80
2023-02-24T20:42:32.855Z,21.67
2023-02-24T20:47:54.663Z,21.55
2023-02-24T20:53:16.860Z,21.43
2023-02-24T20:58:39.438Z,21.28
2023-02-24T21:04:02.045Z,21.17
2023-02-24T21:09:23.813Z,21.21
2023-02-24T21:14:45.551Z,21.25
2023-02-24T21:20:11.285Z,21.24
2023-02-24T21:25:32.986Z,21.24
2023-02-24T21:30:54.802Z,21.24
2023-02-24T21:36:16.927Z,21.19
2023-02-24T21:41:38.930Z,21.11
2023-02-24T21:47:00.651Z,21.03
2023-02-24T21:52:22.432Z,20.93
2023-02-24T21:57:45.279Z,20.84
2023-02-24T22:03:08.158Z,20.76
2023-02-24T22:08:29.929Z,20.68
2023-02-24T22:13:51.673Z,20.64
2023-02-24T22:19:14.334Z,20.53
2023-02-24T22:24:36.082Z,20.45
2023-02-24T22:29:57.801Z,20.37
2023-02-24T22:35:19.716Z,20.29
2023-02-24T22:40:41.386Z,20.21
2023-02-24T22:46:06.727Z,20.13
2023-02-24T22:51:28.896Z,20.05
2023-02-24T22:56:50.608Z,20.01
2023-02-24T23:02:12.309Z,19.93
2023-02-24T23:07:34.033Z,19.89
2023-02-24T23:12:55.727Z,19.84
2023-02-24T23:18:17.702Z,19.82
2023-02-24T23:23:39.467Z,19.79
2023-02-24T23:29:01.798Z,19.73
2023-02-24T23:34:24.149Z,19.68
2023-02-24T23:39:45.833Z,19.64
2023-02-24T23:45:08.077Z,19.60
2023-02-24T23:50:29.904Z,19.59
2023-02-24T23:55:51.741Z,19.53
